Time;durP1;ratioP1;P1;durP2;ratioP2;P2;SDS_P1;SDS_P2;PMS_P1;PMS_P2;Temp;Humidity;BMP_temperature;BMP_pressure;BME280_temperature;BME280_humidity;BME280_pressure;Samples;Min_cycle;Max_cycle;Signal;HPM_P1;HPM_P2
2023/09/23 00:10:53;;;;;;;;;;;13.50;99.90;;;;;;8409903;28;19966;-71
2023/09/23 00:14:54;;;;;;;;;;;13.50;99.90;;;;;;8400577;28;19977;-71
2023/09/23 00:18:56;;;;;;;;;;;13.40;99.90;;;;;;8409471;28;20018;-71
2023/09/23 00:33:05;;;;;;;;;;;13.30;99.90;;;;;;8404201;28;19923;-71
2023/09/23 00:37:08;;;;;;;;;;;13.30;99.90;;;;;;8418582;28;19947;-71
2023/09/23 00:41:10;;;;;;;;;;;13.20;99.90;;;;;;8419030;28;19924;-72
2023/09/23 00:45:15;;;;;;;;;;;13.20;99.90;;;;;;8401951;28;19947;-72
2023/09/23 00:49:16;;;;;;;;;;;13.20;99.90;;;;;;8418366;28;19924;-71
2023/09/23 00:53:20;;;;;;;;;;;13.20;99.90;;;;;;8414861;28;20635;-71
2023/09/23 00:57:22;;;;;;;;;;;13.30;99.90;;;;;;8396580;28;19924;-72
2023/09/23 01:01:24;;;;;;;;;;;13.30;99.90;;;;;;8407398;28;19931;-71
2023/09/23 01:05:30;;;;;;;;;;;13.30;99.90;;;;;;8411456;28;19934;-71
2023/09/23 01:09:33;;;;;;;;;;;13.30;99.90;;;;;;8394872;28;20655;-71
2023/09/23 01:13:35;;;;;;;;;;;13.30;99.90;;;;;;8384423;28;19932;-71
2023/09/23 01:17:37;;;;;;;;;;;13.30;99.90;;;;;;8412272;28;20306;-71
2023/09/23 01:21:39;;;;;;;;;;;13.30;99.90;;;;;;8419445;28;19931;-71
2023/09/23 01:25:41;;;;;;;;;;;13.30;99.90;;;;;;8410112;28;19928;-71
2023/09/23 01:29:43;;;;;;;;;;;13.30;99.90;;;;;;8410589;28;19932;-71
2023/09/23 01:33:44;;;;;;;;;;;13.30;99.90;;;;;;8403635;28;20394;-72
2023/09/23 01:37:47;;;;;;;;;;;13.30;99.90;;;;;;8392085;28;19928;-71
2023/09/23 01:41:49;;;;;;;;;;;13.30;99.90;;;;;;8410779;28;19931;-71
2023/09/23 01:45:52;;;;;;;;;;;13.30;99.90;;;;;;8409353;28;19929;-71
2023/09/23 01:49:53;;;;;;;;;;;13.20;99.90;;;;;;8419239;28;19924;-71
2023/09/23 01:53:55;;;;;;;;;;;13.20;99.90;;;;;;8413521;28;20363;-71
2023/09/23 01:57:57;;;;;;;;;;;13.10;99.90;;;;;;8398771;28;19928;-71
2023/09/23 02:01:59;;;;;;;;;;;13.10;99.90;;;;;;8388456;28;19928;-71
2023/09/23 02:06:01;;;;;;;;;;;13.00;99.90;;;;;;8406134;28;19934;-71
2023/09/23 02:10:03;;;;;;;;;;;13.00;99.90;;;;;;8409107;28;19959;-72
2023/09/23 02:14:05;;;;;;;;;;;13.00;99.90;;;;;;8406297;28;19931;-71
2023/09/23 02:18:07;;;;;;;;;;;13.00;99.90;;;;;;8393974;28;20601;-71
2023/09/23 02:22:10;;;;;;;;;;;13.00;99.90;;;;;;8404702;28;20329;-71
2023/09/23 02:26:12;;;;;;;;;;;12.90;99.90;;;;;;8408522;28;20369;-71
2023/09/23 02:30:14;;;;;;;;;;;12.90;99.90;;;;;;8406715;28;19978;-71
2023/09/23 02:34:16;;;;;;;;;;;12.80;99.90;;;;;;8401579;28;19935;-71
2023/09/23 02:38:19;;;;;;;;;;;12.80;99.90;;;;;;8400689;28;19924;-71
2023/09/23 02:42:21;;;;;;;;;;;12.80;99.90;;;;;;8404082;28;20375;-71
2023/09/23 02:46:23;;;;;;;;;;;12.80;99.90;;;;;;8405793;28;19932;-71
2023/09/23 02:50:25;;;;;;;;;;;12.80;99.90;;;;;;8414557;28;20279;-71
2023/09/23 02:54:27;;;;;;;;;;;12.80;99.90;;;;;;8395182;28;20040;-71
2023/09/23 02:58:29;;;;;;;;;;;12.70;99.90;;;;;;8410173;28;19972;-71
2023/09/23 03:02:31;;;;;;;;;;;12.70;99.90;;;;;;8399951;28;19928;-71
2023/09/23 03:06:37;;;;;;;;;;;12.70;99.90;;;;;;8421699;28;20022;-71
2023/09/23 03:10:41;;;;;;;;;;;12.60;99.90;;;;;;8389960;28;19928;-71
2023/09/23 03:14:45;;;;;;;;;;;12.60;99.90;;;;;;8422016;28;19932;-71
2023/09/23 03:19:10;;;;;;;;;;;12.50;99.90;;;;;;8417167;28;20303;-71
2023/09/23 03:23:12;;;;;;;;;;;12.50;99.90;;;;;;8396058;28;20867;-71
2023/09/23 03:27:15;;;;;;;;;;;12.50;99.90;;;;;;8421277;28;19924;-71
2023/09/23 03:31:16;;;;;;;;;;;12.50;99.90;;;;;;8417152;28;19931;-71
2023/09/23 03:35:20;;;;;;;;;;;12.50;99.90;;;;;;8413788;28;20251;-71
2023/09/23 03:39:22;;;;;;;;;;;12.50;99.90;;;;;;8382164;28;19932;-71
2023/09/23 03:43:24;;;;;;;;;;;12.50;99.90;;;;;;8417009;28;20040;-71
2023/09/23 03:47:26;;;;;;;;;;;12.60;99.90;;;;;;8417214;28;19924;-71
2023/09/23 03:51:28;;;;;;;;;;;12.50;99.90;;;;;;8399570;28;19936;-71
2023/09/23 03:55:30;;;;;;;;;;;12.50;99.90;;;;;;8417859;28;19951;-70
2023/09/23 03:59:31;;;;;;;;;;;12.50;99.90;;;;;;8420888;28;20372;-70
2023/09/23 04:03:34;;;;;;;;;;;12.50;99.90;;;;;;8413974;28;19931;-70
2023/09/23 04:07:36;;;;;;;;;;;12.50;99.90;;;;;;8382930;28;19924;-71
2023/09/23 04:11:38;;;;;;;;;;;12.50;99.90;;;;;;8401047;28;19932;-70
2023/09/23 04:15:40;;;;;;;;;;;12.40;99.90;;;;;;8408501;28;20372;-70
2023/09/23 04:19:42;;;;;;;;;;;12.50;99.90;;;;;;8412052;28;19924;-70
2023/09/23 04:23:43;;;;;;;;;;;12.40;99.90;;;;;;8411493;28;19924;-71
2023/09/23 04:27:47;;;;;;;;;;;12.40;99.90;;;;;;8396566;28;19924;-71
2023/09/23 04:31:49;;;;;;;;;;;12.50;99.90;;;;;;8400329;28;19927;-71
2023/09/23 04:35:56;;;;;;;;;;;12.50;99.90;;;;;;8410990;28;19978;-71
2023/09/23 04:39:58;;;;;;;;;;;12.50;99.90;;;;;;8399275;28;20504;-71
2023/09/23 04:44:00;;;;;;;;;;;12.50;99.90;;;;;;8409662;28;20383;-71
2023/09/23 04:48:01;;;;;;;;;;;12.60;99.90;;;;;;8385920;28;20003;-71
2023/09/23 04:52:04;;;;;;;;;;;12.50;99.90;;;;;;8419176;28;20444;-71
2023/09/23 04:56:16;;;;;;;;;;;12.50;99.90;;;;;;8396008;28;19986;-71
2023/09/23 05:00:19;;;;;;;;;;;12.50;99.90;;;;;;8414844;28;19924;-71
2023/09/23 05:04:21;;;;;;;;;;;12.50;99.90;;;;;;8408769;28;19938;-70
2023/09/23 05:08:23;;;;;;;;;;;12.50;99.90;;;;;;8407681;28;19934;-70
2023/09/23 05:12:25;;;;;;;;;;;12.50;99.90;;;;;;8415884;28;20291;-71
2023/09/23 05:16:26;;;;;;;;;;;12.50;99.90;;;;;;8412911;28;20720;-71
2023/09/23 05:20:28;;;;;;;;;;;12.50;99.90;;;;;;8402160;28;19925;-71
2023/09/23 05:24:30;;;;;;;;;;;12.50;99.90;;;;;;8420088;28;19928;-71
2023/09/23 05:28:32;;;;;;;;;;;12.50;99.90;;;;;;8411906;28;19970;-71
2023/09/23 05:32:39;;;;;;;;;;;12.50;99.90;;;;;;8411709;28;20456;-71
2023/09/23 05:36:41;;;;;;;;;;;12.50;99.90;;;;;;8405649;28;19959;-70
2023/09/23 05:40:43;;;;;;;;;;;12.50;99.90;;;;;;8413252;28;19986;-70
2023/09/23 05:44:46;;;;;;;;;;;12.50;99.90;;;;;;8406624;28;20022;-70
2023/09/23 05:48:48;;;;;;;;;;;12.50;99.90;;;;;;8423789;28;19931;-71
2023/09/23 05:52:50;;;;;;;;;;;12.50;99.90;;;;;;8414973;28;19924;-70
2023/09/23 05:56:51;;;;;;;;;;;12.40;99.90;;;;;;8405636;28;19929;-70
2023/09/23 06:00:53;;;;;;;;;;;12.40;99.90;;;;;;8408486;28;20380;-70
2023/09/23 06:04:54;;;;;;;;;;;12.40;99.90;;;;;;8395988;28;20021;-70
2023/09/23 06:08:57;;;;;;;;;;;12.40;99.90;;;;;;8392897;28;19924;-70
2023/09/23 06:12:58;;;;;;;;;;;12.40;99.90;;;;;;8412743;28;19974;-70
2023/09/23 06:17:01;;;;;;;;;;;12.30;99.90;;;;;;8393771;28;19928;-70
2023/09/23 06:21:04;;;;;;;;;;;12.30;99.90;;;;;;8392418;28;19982;-70
2023/09/23 06:25:06;;;;;;;;;;;12.40;99.90;;;;;;8407922;28;19928;-70
2023/09/23 06:29:09;;;;;;;;;;;12.40;99.90;;;;;;8411662;28;19924;-70
2023/09/23 06:33:10;;;;;;;;;;;12.40;99.90;;;;;;8420891;28;19948;-70
2023/09/23 06:37:12;;;;;;;;;;;12.50;99.90;;;;;;8415944;28;19966;-70
2023/09/23 06:41:14;;;;;;;;;;;12.60;99.90;;;;;;8413522;28;19931;-70
2023/09/23 06:45:15;;;;;;;;;;;12.60;99.90;;;;;;8419578;28;20286;-70
2023/09/23 06:49:17;;;;;;;;;;;12.70;99.90;;;;;;8416252;28;19931;-71
2023/09/23 06:53:19;;;;;;;;;;;12.80;99.90;;;;;;8417641;28;19933;-70
2023/09/23 06:57:20;;;;;;;;;;;12.90;99.90;;;;;;8409563;28;19924;-71
2023/09/23 07:01:22;;;;;;;;;;;13.00;99.90;;;;;;8421791;28;19924;-70
2023/09/23 07:05:24;;;;;;;;;;;13.00;99.90;;;;;;8400784;28;19981;-70
2023/09/23 07:09:25;;;;;;;;;;;13.10;99.90;;;;;;8425335;28;19931;-70
2023/09/23 07:13:27;;;;;;;;;;;13.10;99.90;;;;;;8416928;28;19925;-71
2023/09/23 07:17:29;;;;;;;;;;;13.20;99.90;;;;;;8422183;28;20309;-70
2023/09/23 07:21:30;;;;;;;;;;;13.20;99.90;;;;;;8418203;28;20405;-70
2023/09/23 07:25:39;;;;;;;;;;;13.20;99.90;;;;;;8423748;28;19985;-70
2023/09/23 07:29:40;;;;;;;;;;;13.20;99.90;;;;;;8425164;28;19935;-70
2023/09/23 07:33:42;;;;;;;;;;;13.40;99.90;;;;;;8411875;28;20291;-70
2023/09/23 07:37:44;;;;;;;;;;;13.50;99.90;;;;;;8410102;28;19924;-69
2023/09/23 07:41:46;;;;;;;;;;;13.60;99.90;;;;;;8407854;28;19924;-70
2023/09/23 08:00:58;;;;;;;;;;;13.60;99.90;;;;;;8427653;28;19923;-69
2023/09/23 08:05:00;;;;;;;;;;;13.60;99.90;;;;;;8415840;28;19958;-69
2023/09/23 08:09:02;;;;;;;;;;;13.50;99.90;;;;;;8415182;28;19923;-70
2023/09/23 08:13:03;;;;;;;;;;;13.60;99.90;;;;;;8405160;28;20363;-70
2023/09/23 08:26:53;;;;;;;;;;;13.70;99.90;;;;;;8412146;28;20375;-69
2023/09/23 08:30:55;;;;;;;;;;;13.70;99.90;;;;;;8417454;28;20294;-69
2023/09/23 08:34:56;;;;;;;;;;;13.70;99.90;;;;;;8410601;28;19971;-70
2023/09/23 08:38:58;;;;;;;;;;;13.70;99.90;;;;;;8418207;28;19928;-70
2023/09/23 08:43:04;;;;;;;;;;;13.70;99.90;;;;;;8411775;28;20461;-70
2023/09/23 08:47:05;;;;;;;;;;;13.70;99.90;;;;;;8415987;28;19924;-69
2023/09/23 08:51:08;;;;;;;;;;;13.70;99.90;;;;;;8401666;28;19947;-69
2023/09/23 08:55:10;;;;;;;;;;;13.80;99.90;;;;;;8394592;28;19924;-70
2023/09/23 08:59:14;;;;;;;;;;;13.80;99.90;;;;;;8401507;28;19969;-70
2023/09/23 09:03:15;;;;;;;;;;;13.80;99.90;;;;;;8399555;28;20002;-70
2023/09/23 09:07:17;;;;;;;;;;;13.80;99.90;;;;;;8393047;28;19924;-70
2023/09/23 09:11:20;;;;;;;;;;;13.80;99.90;;;;;;8414994;28;19943;-70
2023/09/23 09:15:21;;;;;;;;;;;13.90;99.90;;;;;;8411611;28;19924;-70
2023/09/23 09:19:23;;;;;;;;;;;14.00;99.90;;;;;;8392642;28;20347;-70
2023/09/23 09:23:30;;;;;;;;;;;14.00;99.90;;;;;;8402764;28;19924;-69
2023/09/23 09:27:31;;;;;;;;;;;14.10;99.90;;;;;;8400762;28;19973;-69
2023/09/23 09:31:34;;;;;;;;;;;14.20;99.90;;;;;;8425670;28;19924;-70
2023/09/23 09:35:38;;;;;;;;;;;14.30;99.90;;;;;;8396458;28;20425;-70
2023/09/23 09:39:49;;;;;;;;;;;14.40;99.90;;;;;;8397125;28;20353;-69
2023/09/23 09:43:51;;;;;;;;;;;14.60;99.90;;;;;;8417238;28;20591;-70
2023/09/23 09:47:57;;;;;;;;;;;14.60;99.90;;;;;;8392212;28;19924;-70
2023/09/23 09:51:59;;;;;;;;;;;14.70;99.90;;;;;;8406891;28;19928;-69
2023/09/23 09:56:01;;;;;;;;;;;14.70;99.90;;;;;;8419111;28;20411;-70
2023/09/23 10:00:20;;;;;;;;;;;14.70;99.90;;;;;;8392826;28;19924;-71
2023/09/23 10:04:22;;;;;;;;;;;14.70;99.90;;;;;;8411827;28;19932;-70
2023/09/23 10:08:27;;;;;;;;;;;14.70;99.90;;;;;;8409070;28;20037;-70
2023/09/23 10:12:32;;;;;;;;;;;14.70;99.90;;;;;;8409845;28;19928;-71
2023/09/23 10:16:35;;;;;;;;;;;14.70;99.90;;;;;;8400658;28;19933;-70
2023/09/23 10:20:39;;;;;;;;;;;14.70;99.90;;;;;;8388191;28;19966;-70
2023/09/23 10:24:41;;;;;;;;;;;14.70;99.90;;;;;;8392088;28;19928;-70
2023/09/23 10:28:45;;;;;;;;;;;14.70;99.90;;;;;;8416541;28;20394;-70
2023/09/23 10:32:47;;;;;;;;;;;14.70;99.90;;;;;;8396931;28;20354;-70
2023/09/23 10:36:50;;;;;;;;;;;14.70;99.90;;;;;;8409845;28;20290;-71
2023/09/23 10:40:53;;;;;;;;;;;14.70;99.90;;;;;;8389796;28;20241;-71
2023/09/23 10:45:01;;;;;;;;;;;14.70;99.90;;;;;;8381012;28;20699;-71
2023/09/23 10:49:03;;;;;;;;;;;14.80;99.90;;;;;;8405166;28;20012;-71
2023/09/23 10:53:05;;;;;;;;;;;14.90;99.90;;;;;;8408781;28;20325;-71
2023/09/23 10:57:07;;;;;;;;;;;15.10;99.90;;;;;;8405204;28;19928;-70
2023/09/23 11:01:08;;;;;;;;;;;15.50;99.90;;;;;;8405013;28;19931;-70
2023/09/23 11:05:11;;;;;;;;;;;15.80;99.90;;;;;;8400121;28;19947;-70
2023/09/23 11:09:12;;;;;;;;;;;15.90;99.90;;;;;;8399805;28;19939;-71
2023/09/23 11:13:15;;;;;;;;;;;15.90;99.90;;;;;;8399515;28;19972;-70
2023/09/23 11:17:26;;;;;;;;;;;15.80;99.90;;;;;;8406154;28;19977;-70
2023/09/23 11:21:28;;;;;;;;;;;15.80;99.90;;;;;;8398633;28;19935;-70
2023/09/23 11:25:30;;;;;;;;;;;15.80;99.90;;;;;;8412145;28;19966;-71
2023/09/23 11:39:45;;;;;;;;;;;16.10;99.90;;;;;;8402830;28;20291;-70
2023/09/23 11:43:50;;;;;;;;;;;16.20;99.90;;;;;;8415702;28;19932;-70
2023/09/23 11:47:52;;;;;;;;;;;16.30;99.90;;;;;;8405144;28;20567;-70
2023/09/23 11:51:53;;;;;;;;;;;16.30;99.90;;;;;;8406019;28;19931;-70
2023/09/23 11:55:57;;;;;;;;;;;16.30;99.90;;;;;;8406332;28;20575;-70
2023/09/23 11:59:59;;;;;;;;;;;16.20;99.90;;;;;;8412014;28;19987;-70
2023/09/23 12:04:00;;;;;;;;;;;16.10;99.90;;;;;;8400657;28;19973;-70
2023/09/23 12:08:03;;;;;;;;;;;16.00;99.90;;;;;;8391927;28;19924;-70
2023/09/23 12:12:05;;;;;;;;;;;16.00;99.90;;;;;;8420124;28;19960;-70
2023/09/23 12:16:07;;;;;;;;;;;16.10;99.90;;;;;;8418812;28;19924;-70
2023/09/23 12:20:11;;;;;;;;;;;16.40;99.90;;;;;;8413451;28;19962;-71
2023/09/23 12:24:14;;;;;;;;;;;16.60;99.90;;;;;;8415768;28;19939;-70
2023/09/23 12:28:15;;;;;;;;;;;16.70;99.90;;;;;;8397394;28;19928;-71
2023/09/23 12:32:17;;;;;;;;;;;16.90;99.90;;;;;;8408668;28;19928;-71
2023/09/23 12:36:19;;;;;;;;;;;17.00;99.90;;;;;;8428404;28;19931;-71
2023/09/23 12:40:20;;;;;;;;;;;17.00;99.90;;;;;;8415745;28;19955;-71
2023/09/23 12:44:23;;;;;;;;;;;17.00;99.90;;;;;;8408047;28;20402;-71
2023/09/23 12:48:25;;;;;;;;;;;17.00;99.90;;;;;;8398501;28;19938;-71
2023/09/23 12:52:27;;;;;;;;;;;17.00;99.90;;;;;;8403621;28;19928;-70
2023/09/23 12:56:28;;;;;;;;;;;17.00;99.90;;;;;;8390444;28;19925;-71
2023/09/23 13:00:30;;;;;;;;;;;17.10;99.90;;;;;;8407924;28;19935;-71
2023/09/23 13:04:31;;;;;;;;;;;17.20;99.90;;;;;;8414193;28;19931;-71
2023/09/23 13:08:33;;;;;;;;;;;17.30;99.90;;;;;;8413844;28;20046;-71
2023/09/23 13:12:36;;;;;;;;;;;17.30;99.90;;;;;;8375804;28;19996;-71
2023/09/23 13:16:40;;;;;;;;;;;17.40;99.90;;;;;;8390275;28;19924;-71
2023/09/23 13:20:43;;;;;;;;;;;17.40;99.90;;;;;;8403888;28;20410;-72
2023/09/23 13:24:46;;;;;;;;;;;17.40;99.90;;;;;;8370111;28;20198;-72
2023/09/23 13:28:47;;;;;;;;;;;17.50;99.90;;;;;;8385453;28;19929;-70
2023/09/23 13:32:49;;;;;;;;;;;17.50;99.90;;;;;;8368732;28;19928;-71
2023/09/23 13:36:51;;;;;;;;;;;17.40;99.90;;;;;;8382688;28;19924;-71
2023/09/23 13:40:53;;;;;;;;;;;17.40;99.90;;;;;;8385563;28;19936;-72
2023/09/23 13:44:54;;;;;;;;;;;17.40;99.90;;;;;;8364427;28;20395;-71
2023/09/23 13:48:56;;;;;;;;;;;17.50;99.90;;;;;;8373620;28;20383;-72
2023/09/23 13:52:57;;;;;;;;;;;17.60;99.90;;;;;;8377374;28;19933;-72
2023/09/23 13:56:59;;;;;;;;;;;17.70;99.90;;;;;;8393467;28;19935;-71
2023/09/23 14:01:01;;;;;;;;;;;17.70;99.90;;;;;;8356961;28;19924;-71
2023/09/23 14:05:03;;;;;;;;;;;17.50;99.90;;;;;;8404087;28;19925;-70
2023/09/23 14:09:04;;;;;;;;;;;17.40;99.90;;;;;;8374134;28;19924;-72
2023/09/23 14:13:07;;;;;;;;;;;17.30;99.90;;;;;;8401108;28;19928;-71
2023/09/23 14:17:09;;;;;;;;;;;17.20;99.90;;;;;;8422921;28;19977;-71
2023/09/23 14:21:11;;;;;;;;;;;17.20;99.90;;;;;;8406891;28;20409;-71
2023/09/23 14:25:14;;;;;;;;;;;17.20;99.90;;;;;;8396911;28;19924;-71
2023/09/23 14:29:16;;;;;;;;;;;17.10;99.90;;;;;;8416649;28;19925;-71
2023/09/23 14:33:18;;;;;;;;;;;17.00;99.90;;;;;;8413699;28;19924;-71
2023/09/23 14:37:20;;;;;;;;;;;16.90;99.90;;;;;;8385460;28;19924;-71
2023/09/23 14:41:21;;;;;;;;;;;16.90;99.90;;;;;;8403082;28;20305;-71
2023/09/23 14:45:23;;;;;;;;;;;16.80;99.90;;;;;;8408857;28;19935;-71
2023/09/23 14:49:25;;;;;;;;;;;16.70;99.90;;;;;;8412909;28;20047;-71
2023/09/23 14:53:26;;;;;;;;;;;16.70;99.90;;;;;;8413761;28;19935;-71
2023/09/23 14:57:28;;;;;;;;;;;16.70;99.90;;;;;;8419646;28;19950;-70
2023/09/23 15:01:30;;;;;;;;;;;16.70;99.90;;;;;;8411636;28;19971;-71
2023/09/23 15:05:33;;;;;;;;;;;16.70;99.90;;;;;;8405689;28;20021;-71
2023/09/23 15:09:35;;;;;;;;;;;16.60;99.90;;;;;;8413340;28;20003;-71
2023/09/23 15:13:36;;;;;;;;;;;16.70;99.90;;;;;;8398005;28;19985;-71
2023/09/23 15:17:38;;;;;;;;;;;16.70;99.90;;;;;;8414696;28;19936;-71
2023/09/23 15:21:41;;;;;;;;;;;16.70;99.90;;;;;;8422428;28;19936;-71
2023/09/23 15:25:42;;;;;;;;;;;16.70;99.90;;;;;;8417177;28;19928;-71
2023/09/23 15:29:47;;;;;;;;;;;16.60;99.90;;;;;;8424038;28;19982;-71
2023/09/23 15:33:48;;;;;;;;;;;16.60;99.90;;;;;;8395239;28;19946;-71
2023/09/23 15:37:50;;;;;;;;;;;16.50;99.90;;;;;;8421848;28;20371;-71
2023/09/23 15:41:52;;;;;;;;;;;16.30;99.90;;;;;;8412392;28;19925;-71
2023/09/23 15:45:58;;;;;;;;;;;16.30;99.90;;;;;;8392273;28;20205;-70
2023/09/23 15:50:21;;;;;;;;;;;16.20;99.90;;;;;;8411030;28;20311;-71
2023/09/23 15:54:23;;;;;;;;;;;16.20;99.90;;;;;;8411461;28;19932;-71
2023/09/23 15:58:24;;;;;;;;;;;16.20;99.90;;;;;;8417224;28;20369;-71
2023/09/23 16:02:26;;;;;;;;;;;16.20;99.90;;;;;;8403453;28;19932;-71
2023/09/23 16:06:28;;;;;;;;;;;16.30;99.90;;;;;;8423989;28;20324;-71
2023/09/23 16:10:30;;;;;;;;;;;16.30;99.90;;;;;;8421565;28;19924;-71
2023/09/23 16:14:31;;;;;;;;;;;16.30;99.90;;;;;;8386437;28;19942;-71
2023/09/23 16:18:33;;;;;;;;;;;16.40;99.90;;;;;;8405549;28;19958;-71
2023/09/23 16:22:35;;;;;;;;;;;16.40;99.90;;;;;;8405274;28;19966;-71
2023/09/23 16:26:37;;;;;;;;;;;16.40;99.90;;;;;;8391984;28;19929;-71
2023/09/23 16:30:41;;;;;;;;;;;16.40;99.90;;;;;;8397064;28;19928;-71
2023/09/23 16:34:43;;;;;;;;;;;16.40;99.90;;;;;;8419190;28;19977;-71
2023/09/23 16:38:48;;;;;;;;;;;16.40;99.90;;;;;;8416622;28;19924;-71
2023/09/23 16:42:49;;;;;;;;;;;16.50;99.90;;;;;;8427026;28;19947;-71
2023/09/23 16:46:53;;;;;;;;;;;16.60;99.90;;;;;;8423178;28;19924;-71
2023/09/23 16:50:55;;;;;;;;;;;16.60;99.90;;;;;;8405227;28;19939;-71
2023/09/23 16:54:57;;;;;;;;;;;16.50;99.90;;;;;;8419853;28;20002;-71
2023/09/23 16:58:59;;;;;;;;;;;16.50;99.90;;;;;;8417603;28;19939;-71
2023/09/23 17:03:00;;;;;;;;;;;16.40;99.90;;;;;;8419306;28;19958;-71
2023/09/23 17:07:03;;;;;;;;;;;16.30;99.90;;;;;;8406244;28;19932;-71
2023/09/23 17:11:05;;;;;;;;;;;16.30;99.90;;;;;;8392823;28;19986;-71
2023/09/23 17:15:07;;;;;;;;;;;16.20;99.90;;;;;;8410331;28;19932;-71
2023/09/23 17:19:09;;;;;;;;;;;16.20;99.90;;;;;;8408726;28;19940;-71
2023/09/23 17:28:24;;;;;;;;;;;16.10;99.90;;;;;;8414419;28;19918;-71
2023/09/23 17:32:26;;;;;;;;;;;16.10;99.90;;;;;;8407439;28;20287;-72
2023/09/23 17:36:28;;;;;;;;;;;16.00;99.90;;;;;;8405009;28;19928;-71
2023/09/23 17:40:30;;;;;;;;;;;16.00;99.90;;;;;;8408777;28;19928;-71
2023/09/23 17:44:31;;;;;;;;;;;16.00;99.90;;;;;;8403865;28;19941;-71
2023/09/23 17:48:35;;;;;;;;;;;16.00;99.90;;;;;;8406390;28;19924;-71
2023/09/23 17:52:37;;;;;;;;;;;15.90;99.90;;;;;;8403116;28;19932;-71
2023/09/23 17:56:39;;;;;;;;;;;15.90;99.90;;;;;;8403688;28;19925;-71
2023/09/23 18:00:41;;;;;;;;;;;15.90;99.90;;;;;;8402298;28;19936;-71
2023/09/23 18:04:43;;;;;;;;;;;15.90;99.90;;;;;;8406262;28;19928;-71
2023/09/23 18:08:44;;;;;;;;;;;15.90;99.90;;;;;;8415606;28;19931;-71
2023/09/23 18:12:46;;;;;;;;;;;15.90;99.90;;;;;;8385598;28;20030;-71
2023/09/23 18:16:48;;;;;;;;;;;15.90;99.90;;;;;;8409657;28;19932;-71
2023/09/23 18:20:49;;;;;;;;;;;15.80;99.90;;;;;;8413428;28;19924;-71
2023/09/23 18:24:51;;;;;;;;;;;15.70;99.90;;;;;;8418385;28;19924;-70
2023/09/23 18:28:54;;;;;;;;;;;15.60;99.90;;;;;;8405957;28;19932;-71
2023/09/23 18:32:55;;;;;;;;;;;15.40;99.90;;;;;;8404660;28;19993;-71
2023/09/23 18:36:57;;;;;;;;;;;15.30;99.90;;;;;;8424600;28;19928;-71
2023/09/23 18:40:59;;;;;;;;;;;15.30;99.90;;;;;;8420388;28;19928;-71
2023/09/23 18:45:02;;;;;;;;;;;15.30;99.90;;;;;;8420025;28;20367;-71
2023/09/23 18:49:03;;;;;;;;;;;15.30;99.90;;;;;;8423057;28;20394;-71
2023/09/23 18:53:05;;;;;;;;;;;15.40;99.90;;;;;;8404755;28;19923;-71
2023/09/23 18:57:07;;;;;;;;;;;15.40;99.90;;;;;;8422292;28;19928;-71
2023/09/23 19:01:08;;;;;;;;;;;15.40;99.90;;;;;;8420363;28;19939;-71
2023/09/23 19:05:10;;;;;;;;;;;15.40;99.90;;;;;;8419956;28;20423;-71
2023/09/23 19:09:13;;;;;;;;;;;15.50;99.90;;;;;;8420928;28;19986;-71
2023/09/23 19:13:14;;;;;;;;;;;15.50;99.90;;;;;;8420413;28;19924;-71
2023/09/23 19:17:16;;;;;;;;;;;15.50;99.90;;;;;;8407841;28;19947;-71
2023/09/23 19:21:18;;;;;;;;;;;15.50;99.90;;;;;;8420744;28;19936;-71
2023/09/23 19:25:20;;;;;;;;;;;15.40;99.90;;;;;;8410190;28;20357;-71
2023/09/23 19:29:22;;;;;;;;;;;15.40;99.90;;;;;;8385634;28;19970;-71
2023/09/23 19:33:23;;;;;;;;;;;15.30;99.90;;;;;;8406175;28;19928;-71
2023/09/23 19:37:25;;;;;;;;;;;15.30;99.90;;;;;;8409003;28;20394;-71
2023/09/23 19:41:27;;;;;;;;;;;15.30;99.90;;;;;;8403816;28;19924;-72
2023/09/23 19:45:31;;;;;;;;;;;15.30;99.90;;;;;;8392772;28;19947;-71
2023/09/23 19:49:34;;;;;;;;;;;15.20;99.90;;;;;;8410087;28;19933;-72
2023/09/23 19:53:36;;;;;;;;;;;15.20;99.90;;;;;;8418570;28;19924;-71
2023/09/23 19:57:37;;;;;;;;;;;15.20;99.90;;;;;;8412281;28;19932;-71
2023/09/23 20:01:39;;;;;;;;;;;15.20;99.90;;;;;;8414922;28;19925;-71
2023/09/23 20:05:41;;;;;;;;;;;15.20;99.90;;;;;;8419367;28;20397;-73
2023/09/23 20:09:42;;;;;;;;;;;15.10;99.90;;;;;;8405031;28;20368;-71
2023/09/23 20:13:45;;;;;;;;;;;15.00;99.90;;;;;;8407586;28;19924;-71
2023/09/23 20:17:46;;;;;;;;;;;15.00;99.90;;;;;;8392207;28;19924;-71
2023/09/23 20:21:48;;;;;;;;;;;14.90;99.90;;;;;;8402538;28;19928;-71
2023/09/23 20:25:51;;;;;;;;;;;14.90;99.90;;;;;;8393827;28;19998;-71
2023/09/23 20:29:53;;;;;;;;;;;14.80;99.90;;;;;;8401689;28;20461;-71
2023/09/23 20:34:07;;;;;;;;;;;14.80;99.90;;;;;;8402750;28;20342;-71
2023/09/23 20:38:09;;;;;;;;;;;14.70;99.90;;;;;;8405873;28;19943;-71
2023/09/23 20:42:11;;;;;;;;;;;14.70;99.90;;;;;;8401646;28;20304;-71
2023/09/23 20:46:13;;;;;;;;;;;14.60;99.90;;;;;;8408859;28;19981;-71
2023/09/23 20:50:15;;;;;;;;;;;14.50;99.90;;;;;;8414737;28;19932;-71
2023/09/23 21:09:29;;;;;;;;;;;14.30;99.90;;;;;;8402949;28;20012;-71
2023/09/23 21:13:30;;;;;;;;;;;14.20;99.90;;;;;;8397990;28;20393;-71
2023/09/23 21:17:34;;;;;;;;;;;14.20;99.90;;;;;;8400476;28;19978;-71
2023/09/23 21:21:36;;;;;;;;;;;14.10;99.90;;;;;;8408296;28;19984;-71
2023/09/23 21:25:38;;;;;;;;;;;14.10;99.90;;;;;;8384400;28;20391;-71
2023/09/23 21:29:39;;;;;;;;;;;14.10;99.90;;;;;;8398189;28;19931;-71
2023/09/23 21:33:42;;;;;;;;;;;14.00;99.90;;;;;;8402433;28;19931;-71
2023/09/23 21:37:43;;;;;;;;;;;14.00;99.90;;;;;;8410713;28;19927;-71
2023/09/23 21:41:45;;;;;;;;;;;13.90;99.90;;;;;;8381841;28;20707;-71
2023/09/23 21:45:46;;;;;;;;;;;13.90;99.90;;;;;;8402376;28;19928;-71
2023/09/23 21:49:48;;;;;;;;;;;13.80;99.90;;;;;;8405905;28;20285;-71
2023/09/23 21:53:50;;;;;;;;;;;13.80;99.90;;;;;;8400577;28;20376;-71
2023/09/23 21:57:51;;;;;;;;;;;13.70;99.90;;;;;;8403816;28;19924;-71
2023/09/23 22:01:53;;;;;;;;;;;13.70;99.90;;;;;;8402443;28;19928;-71
2023/09/23 22:10:34;;;;;;;;;;;13.50;99.90;;;;;;8404241;28;19989;-71
2023/09/23 22:14:43;;;;;;;;;;;13.50;99.90;;;;;;8398378;28;21205;-71
2023/09/23 22:18:45;;;;;;;;;;;13.40;99.90;;;;;;8398006;28;19928;-71
2023/09/23 22:22:47;;;;;;;;;;;13.30;99.90;;;;;;8399112;28;20303;-71
2023/09/23 22:26:52;;;;;;;;;;;13.30;99.90;;;;;;8396701;28;19947;-70
2023/09/23 22:30:54;;;;;;;;;;;13.20;99.90;;;;;;8397310;28;19978;-71
2023/09/23 22:34:56;;;;;;;;;;;13.20;99.90;;;;;;8403780;28;20026;-71
2023/09/23 22:49:06;;;;;;;;;;;13.10;99.90;;;;;;8403896;28;20008;-71
2023/09/23 22:53:07;;;;;;;;;;;13.00;99.90;;;;;;8400459;28;19924;-71
2023/09/23 22:57:28;;;;;;;;;;;13.00;99.90;;;;;;8394929;28;19932;-70
2023/09/23 23:01:31;;;;;;;;;;;13.00;99.90;;;;;;8393996;28;19935;-71
2023/09/23 23:05:33;;;;;;;;;;;12.90;99.90;;;;;;8401079;28;19936;-71
2023/09/23 23:14:45;;;;;;;;;;;12.80;99.90;;;;;;8402700;28;20305;-71
2023/09/23 23:18:47;;;;;;;;;;;12.80;99.90;;;;;;8411997;28;19928;-71
2023/09/23 23:22:49;;;;;;;;;;;12.70;99.90;;;;;;8402518;28;19925;-71
2023/09/23 23:42:04;;;;;;;;;;;12.70;99.90;;;;;;8404722;28;19931;-71
2023/09/23 23:46:06;;;;;;;;;;;12.60;99.90;;;;;;8410315;28;19929;-71
2023/09/23 23:50:08;;;;;;;;;;;12.60;99.90;;;;;;8410310;28;19924;-71
2023/09/23 23:54:10;;;;;;;;;;;12.50;99.90;;;;;;8406334;28;20377;-71
2023/09/23 23:58:12;;;;;;;;;;;12.50;99.90;;;;;;8402173;28;19924;-71
